Univ of Nebraska E Campus, Nebraska
Current Conditions -  °F | °C
As of 8:54 AM on Saturday 20 Dec 2014 (Local Time) from KLNK Reporting Station
Haze Haze  
Wind Chill: 32°   Ceiling: 300
Heat Index: 32°   Visibility: 3mi
Dew Point: 31°   Wind: 3mph
Humidity: 96%   Direction: 230°SW
Pressure: 30.11"   Gusts: NA
Location:  40.8311°N, 96.6637°W
Report Text: KLNK 201454Z 23003KT 3SM BR OVC003 00/M01 A3011 RMK AO2 SLP209 T00001006 51007
Loading
Personal Weather Stations






























Interactive Weather Map New forecast layout! Learn more

10-Day Weather Forecast

Advertisements
Track Severe Weather on mobile